Terminal Aerodrome Forecast
Issued by NWS

Home | Current Version | Previous Version | Text Only | Print | Product List | Glossary On
Versions: 1 2 3 4 5 6 7 8 9 10 11 12 13 14 15 16 17 18 19 20 21 22 23 24
839
FTUS43 KAPX 131720
TAFAPN
TAF
KAPN 131720Z 1318/1418 32010G15KT P6SM SCT025 BKN060
      TEMPO 1318/1322 4SM -SHSN BKN025
     FM140500 32006KT 6SM -SHSN BKN020
     FM140900 00000KT P6SM SKC=

USA.gov is the U.S. government's official web portal to all federal, state and local government web resources and services.